createdAt,value
2023-05-06T00:01:59.713Z,101803.09
2023-05-06T00:04:05.246Z,101801.31
2023-05-06T00:06:10.479Z,101798.63
2023-05-06T00:08:15.492Z,101788.97
2023-05-06T00:10:22.045Z,101791.72
2023-05-06T00:12:27.003Z,101792.50
2023-05-06T00:14:32.059Z,101795.19
2023-05-06T00:16:40.328Z,101797.91
2023-05-06T00:18:45.797Z,101800.44
2023-05-06T00:20:50.933Z,101794.28
2023-05-06T00:22:56.455Z,101798.78
2023-05-06T00:25:01.483Z,101788.25
2023-05-06T00:27:07.546Z,101785.59
2023-05-06T00:29:12.472Z,101792.78
2023-05-06T00:31:17.638Z,101790.13
2023-05-06T00:33:25.241Z,101782.31
2023-05-06T00:35:30.954Z,101784.19
2023-05-06T00:37:37.222Z,101792.03
2023-05-06T00:39:42.434Z,101791.25
2023-05-06T00:41:47.425Z,101780.72
2023-05-06T00:43:52.304Z,101785.84
2023-05-06T00:45:57.781Z,101782.53
2023-05-06T00:48:03.226Z,101783.50
2023-05-06T00:50:12.861Z,101782.75
2023-05-06T00:52:19.700Z,101773.25
2023-05-06T00:54:24.799Z,101774.09
2023-05-06T00:56:30.107Z,101765.38
2023-05-06T00:58:35.692Z,101757.50
2023-05-06T01:00:43.714Z,101759.41
2023-05-06T01:02:49.679Z,101765.63
2023-05-06T01:04:57.218Z,101773.63
2023-05-06T01:07:15.304Z,101763.19
2023-05-06T01:09:31.793Z,101764.97
2023-05-06T01:11:44.347Z,101765.06
2023-05-06T01:13:55.390Z,101759.06
2023-05-06T01:16:04.381Z,101761.75
2023-05-06T01:18:13.408Z,101772.28
2023-05-06T01:20:21.204Z,101769.72
2023-05-06T01:22:33.664Z,101773.22
2023-05-06T01:24:43.760Z,101773.41
2023-05-06T01:26:48.581Z,101772.56
2023-05-06T01:28:54.258Z,101770.03
2023-05-06T01:31:04.077Z,101774.47
2023-05-06T01:33:14.692Z,101766.56
2023-05-06T01:35:27.785Z,101771.97
2023-05-06T01:37:35.399Z,101772.91
2023-05-06T01:39:44.639Z,101770.28
2023-05-06T01:41:52.596Z,101790.47
2023-05-06T01:43:58.277Z,101783.59
2023-05-06T01:46:04.308Z,101789.66
2023-05-06T01:48:10.628Z,101787.06
2023-05-06T01:50:16.046Z,101788.16
2023-05-06T01:52:20.948Z,101787.50
2023-05-06T01:54:25.951Z,101787.56
2023-05-06T01:56:33.473Z,101790.28
2023-05-06T01:58:38.716Z,101787.66
2023-05-06T02:00:43.882Z,101792.19
2023-05-06T02:02:49.359Z,101793.19
2023-05-06T02:04:56.570Z,101792.19
2023-05-06T02:07:01.508Z,101792.31
2023-05-06T02:09:08.900Z,101797.72
2023-05-06T02:11:13.989Z,101797.03
2023-05-06T02:13:22.613Z,101801.41
2023-05-06T02:15:27.642Z,101806.75
2023-05-06T02:17:32.751Z,101805.94
2023-05-06T02:19:39.894Z,101801.72
2023-05-06T02:21:45.030Z,101803.66
2023-05-06T02:23:50.235Z,101801.91
2023-05-06T02:25:55.234Z,101804.66
2023-05-06T02:28:00.265Z,101802.16
2023-05-06T02:30:09.264Z,101805.72
2023-05-06T02:32:14.557Z,101803.94
2023-05-06T02:34:19.568Z,101803.19
2023-05-06T02:36:24.589Z,101796.31
2023-05-06T02:38:29.630Z,101806.00
2023-05-06T02:40:34.581Z,101796.47
2023-05-06T02:42:41.202Z,101793.91
2023-05-06T02:44:46.217Z,101796.63
2023-05-06T02:46:54.136Z,101808.19
2023-05-06T02:48:59.179Z,101804.75
2023-05-06T02:51:04.268Z,101800.47
2023-05-06T02:53:09.256Z,101807.53
2023-05-06T02:55:14.457Z,101809.34
2023-05-06T02:57:19.618Z,101808.47
2023-05-06T02:59:24.769Z,101811.09
2023-05-06T03:01:29.826Z,101808.47
2023-05-06T03:03:40.172Z,101811.06
2023-05-06T03:05:46.081Z,101804.03
2023-05-06T03:07:51.634Z,101802.28
2023-05-06T03:10:00.064Z,101800.44
2023-05-06T03:12:05.198Z,101801.28
2023-05-06T03:14:10.125Z,101801.22
2023-05-06T03:16:16.712Z,101807.31
2023-05-06T03:18:22.102Z,101793.22
2023-05-06T03:20:29.648Z,101794.78
2023-05-06T03:22:34.667Z,101792.16
2023-05-06T03:24:39.562Z,101794.69
2023-05-06T03:26:44.510Z,101792.88
2023-05-06T03:28:49.544Z,101787.56
2023-05-06T03:30:54.564Z,101789.38
2023-05-06T03:32:59.788Z,101792.84
2023-05-06T03:35:04.784Z,101797.19
2023-05-06T03:37:13.255Z,101804.22
2023-05-06T03:39:18.777Z,101794.53
2023-05-06T03:41:24.053Z,101795.47
2023-05-06T03:43:29.491Z,101798.03
2023-05-06T03:45:34.423Z,101791.06
2023-05-06T03:47:39.474Z,101805.91
2023-05-06T03:49:44.442Z,101800.63
2023-05-06T03:51:49.496Z,101798.78
2023-05-06T03:53:57.690Z,101805.66
2023-05-06T03:56:02.754Z,101803.03
2023-05-06T03:58:08.034Z,101807.31
2023-05-06T04:00:14.757Z,101812.41
2023-05-06T04:02:20.283Z,101811.44
2023-05-06T04:04:25.858Z,101805.28
2023-05-06T04:06:30.847Z,101803.28
2023-05-06T04:08:33.081Z,101808.47
2023-05-06T04:10:43.871Z,101803.97
2023-05-06T04:12:49.487Z,101806.47
2023-05-06T04:14:54.386Z,101807.34
2023-05-06T04:16:59.323Z,101802.91
2023-05-06T04:19:06.625Z,101798.41
2023-05-06T04:21:12.348Z,101802.66
2023-05-06T04:23:17.566Z,101807.81
2023-05-06T04:25:22.740Z,101810.38
2023-05-06T04:27:32.338Z,101811.00
2023-05-06T04:29:38.208Z,101814.34
2023-05-06T04:31:43.396Z,101810.78
2023-05-06T04:33:49.242Z,101807.28
2023-05-06T04:35:56.323Z,101814.28
2023-05-06T04:38:01.285Z,101813.28
2023-05-06T04:40:07.991Z,101818.56
2023-05-06T04:42:12.956Z,101821.09
2023-05-06T04:44:20.531Z,101814.91
2023-05-06T04:46:26.372Z,101819.22
2023-05-06T04:48:31.386Z,101821.84
2023-05-06T04:50:37.081Z,101824.38
2023-05-06T04:52:42.154Z,101819.94
2023-05-06T04:54:47.097Z,101828.66
2023-05-06T04:56:52.463Z,101828.56
2023-05-06T04:58:57.563Z,101832.88
2023-05-06T05:01:08.127Z,101835.47
2023-05-06T05:03:13.269Z,101831.88
2023-05-06T05:05:18.950Z,101837.13
2023-05-06T05:07:24.599Z,101830.13
2023-05-06T05:09:29.882Z,101832.63
2023-05-06T05:11:34.819Z,101830.72
2023-05-06T05:13:43.753Z,101833.22
2023-05-06T05:15:48.873Z,101836.63
2023-05-06T05:17:56.812Z,101839.13
2023-05-06T05:20:02.050Z,101844.25
2023-05-06T05:22:08.095Z,101843.19
2023-05-06T05:24:13.227Z,101835.09
2023-05-06T05:26:18.679Z,101836.56
2023-05-06T05:28:24.534Z,101837.25
2023-05-06T05:30:29.536Z,101837.84
2023-05-06T05:32:34.719Z,101838.50
2023-05-06T05:34:43.175Z,101844.44
2023-05-06T05:36:48.140Z,101834.56
2023-05-06T05:38:54.273Z,101835.91
2023-05-06T05:40:59.818Z,101841.00
2023-05-06T05:43:04.910Z,101832.06
2023-05-06T05:45:11.485Z,101840.56
2023-05-06T05:47:16.570Z,101841.19
2023-05-06T05:49:21.787Z,101835.59
2023-05-06T05:51:31.325Z,101844.00
2023-05-06T05:53:38.137Z,101846.22
2023-05-06T05:55:43.185Z,101843.25
2023-05-06T05:57:48.179Z,101841.22
2023-05-06T05:59:53.618Z,101833.09
2023-05-06T06:01:58.777Z,101834.72
2023-05-06T06:04:03.894Z,101830.75
2023-05-06T06:06:09.534Z,101834.78
2023-05-06T06:08:17.345Z,101839.13
2023-05-06T06:10:22.962Z,101829.97
2023-05-06T06:12:28.239Z,101831.13
2023-05-06T06:14:33.253Z,101832.72
2023-05-06T06:16:40.008Z,101833.28
2023-05-06T06:18:44.953Z,101829.72
2023-05-06T06:20:52.326Z,101836.56
2023-05-06T06:22:58.214Z,101836.13
2023-05-06T06:25:06.258Z,101837.63
2023-05-06T06:27:13.894Z,101847.09
2023-05-06T06:29:19.096Z,101848.78
2023-05-06T06:31:25.116Z,101845.72
2023-05-06T06:33:30.273Z,101842.66
2023-05-06T06:35:35.858Z,101845.00
2023-05-06T06:37:43.836Z,101845.53
2023-05-06T06:39:48.887Z,101842.03
2023-05-06T06:41:59.656Z,101849.22
2023-05-06T06:44:04.682Z,101843.63
2023-05-06T06:46:09.552Z,101847.06
2023-05-06T06:48:14.771Z,101845.78
2023-05-06T06:50:19.982Z,101845.94
2023-05-06T06:52:25.005Z,101864.84
2023-05-06T06:54:30.072Z,101856.84
2023-05-06T06:56:35.269Z,101857.56
2023-05-06T06:58:43.067Z,101869.63
2023-05-06T07:00:48.148Z,101864.53
2023-05-06T07:02:54.978Z,101868.81
2023-05-06T07:04:59.977Z,101866.31
2023-05-06T07:07:05.044Z,101875.16
2023-05-06T07:09:09.978Z,101869.44
2023-05-06T07:11:15.125Z,101876.06
2023-05-06T07:13:21.350Z,101872.06
2023-05-06T07:15:29.365Z,101870.78
2023-05-06T07:17:34.331Z,101870.97
2023-05-06T07:19:39.223Z,101874.03
2023-05-06T07:21:44.360Z,101865.16
2023-05-06T07:23:50.281Z,101874.38
2023-05-06T07:25:55.559Z,101872.38
2023-05-06T07:28:00.613Z,101870.41
2023-05-06T07:30:06.068Z,101877.94
2023-05-06T07:32:13.649Z,101874.81
2023-05-06T07:34:18.903Z,101877.16
2023-05-06T07:36:24.413Z,101878.72
2023-05-06T07:38:29.429Z,101884.81
2023-05-06T07:40:34.604Z,101881.50
2023-05-06T07:42:42.182Z,101883.97
2023-05-06T07:44:47.808Z,101881.97
2023-05-06T07:46:54.015Z,101879.91
2023-05-06T07:49:01.575Z,101879.31
2023-05-06T07:51:07.232Z,101874.00
2023-05-06T07:53:12.101Z,101877.56
2023-05-06T07:55:17.185Z,101873.47
2023-05-06T07:57:22.553Z,101876.91
2023-05-06T07:59:28.029Z,101868.78
2023-05-06T08:01:32.899Z,101877.81
2023-05-06T08:03:40.723Z,101879.06
2023-05-06T08:05:48.293Z,101881.50
2023-05-06T08:07:54.274Z,101875.22
2023-05-06T08:09:59.486Z,101886.81
2023-05-06T08:12:04.594Z,101886.13
2023-05-06T08:14:09.390Z,101885.78
2023-05-06T08:16:14.387Z,101886.81
2023-05-06T08:18:22.899Z,101880.69
2023-05-06T08:20:29.434Z,101883.03
2023-05-06T08:22:37.064Z,101880.81
2023-05-06T08:24:41.870Z,101874.06
2023-05-06T08:26:46.924Z,101871.56
2023-05-06T08:28:51.807Z,101871.50
2023-05-06T08:30:58.983Z,101877.03
2023-05-06T08:33:05.287Z,101867.47
2023-05-06T08:35:11.288Z,101869.19
2023-05-06T08:37:16.486Z,101867.88
2023-05-06T08:39:24.692Z,101868.75
2023-05-06T08:41:32.284Z,101868.53
2023-05-06T08:43:43.685Z,101874.44
2023-05-06T08:45:48.869Z,101879.09
2023-05-06T08:47:55.671Z,101876.53
2023-05-06T08:50:01.649Z,101873.00
2023-05-06T08:52:09.100Z,101879.56
2023-05-06T08:54:15.050Z,101871.66
2023-05-06T08:56:27.253Z,101869.28
2023-05-06T08:58:37.928Z,101871.06
2023-05-06T09:00:43.288Z,101865.75
2023-05-06T09:02:48.506Z,101871.25
2023-05-06T09:04:55.387Z,101870.47
2023-05-06T09:07:02.070Z,101871.97
2023-05-06T09:09:07.302Z,101866.56
2023-05-06T09:11:35.592Z,101867.41
2023-05-06T09:13:40.790Z,101864.50
2023-05-06T09:15:47.506Z,101858.66
2023-05-06T09:17:52.653Z,101866.00
2023-05-06T09:19:59.726Z,101861.09
2023-05-06T09:22:04.810Z,101864.19
2023-05-06T09:24:11.826Z,101859.19
2023-05-06T09:26:17.583Z,101864.31
2023-05-06T09:28:25.998Z,101861.81
2023-05-06T09:30:31.730Z,101857.13
2023-05-06T09:32:40.221Z,101852.75
2023-05-06T09:34:47.044Z,101857.06
2023-05-06T09:36:52.352Z,101855.94
2023-05-06T09:38:57.990Z,101846.16
2023-05-06T09:41:03.273Z,101853.78
2023-05-06T09:43:09.160Z,101844.72
2023-05-06T09:45:20.431Z,101843.00
2023-05-06T09:47:27.048Z,101848.06
2023-05-06T09:49:33.206Z,101843.91
2023-05-06T09:51:39.851Z,101846.00
2023-05-06T09:53:47.021Z,101843.22
2023-05-06T09:55:52.401Z,101842.34
2023-05-06T09:57:58.882Z,101847.63
2023-05-06T10:00:07.446Z,101850.63
2023-05-06T10:02:16.140Z,101838.59
2023-05-06T10:06:30.015Z,101840.97
2023-05-06T10:08:37.064Z,101840.16
2023-05-06T10:10:44.966Z,101837.97
2023-05-06T10:12:54.260Z,101836.91
2023-05-06T10:14:59.430Z,101831.56
2023-05-06T10:17:05.388Z,101832.91
2023-05-06T10:19:13.524Z,101831.34
2023-05-06T10:21:25.118Z,101829.28
2023-05-06T10:23:35.346Z,101831.63
2023-05-06T10:25:42.962Z,101823.56
2023-05-06T10:27:49.005Z,101831.50
2023-05-06T10:30:01.260Z,101822.53
2023-05-06T10:32:07.101Z,101820.50
2023-05-06T10:34:14.752Z,101834.34
2023-05-06T10:36:26.007Z,101829.56
2023-05-06T10:38:37.469Z,101817.59
2023-05-06T10:40:43.028Z,101823.41
2023-05-06T10:42:48.079Z,101817.38
2023-05-06T10:45:07.259Z,101818.66
2023-05-06T10:47:12.203Z,101823.56
2023-05-06T10:49:25.479Z,101815.97
2023-05-06T10:51:32.022Z,101806.84
2023-05-06T10:53:58.966Z,101809.16
2023-05-06T10:56:11.919Z,101807.88
2023-05-06T10:58:18.263Z,101803.72
2023-05-06T11:00:23.934Z,101789.44
2023-05-06T11:02:34.085Z,101804.75
2023-05-06T11:04:42.544Z,101797.94
2023-05-06T11:06:49.206Z,101801.91
2023-05-06T11:09:02.144Z,101795.53
2023-05-06T11:11:47.493Z,101801.19
2023-05-06T11:13:55.885Z,101803.69
2023-05-06T11:16:02.793Z,101801.28
2023-05-06T11:18:43.083Z,101793.16
2023-05-06T11:20:51.246Z,101796.94
2023-05-06T11:22:57.332Z,101792.78
2023-05-06T11:25:02.366Z,101790.47
2023-05-06T11:27:07.531Z,101797.19
2023-05-06T11:29:12.706Z,101791.41
2023-05-06T11:31:18.966Z,101788.06
2023-05-06T11:33:29.675Z,101793.66
2023-05-06T11:35:38.540Z,101784.84
2023-05-06T11:37:46.494Z,101793.91
2023-05-06T11:39:52.290Z,101780.66
2023-05-06T11:41:57.220Z,101786.78
2023-05-06T11:44:02.378Z,101795.38
2023-05-06T11:46:07.791Z,101795.50
2023-05-06T11:48:15.358Z,101789.47
2023-05-06T11:50:26.316Z,101786.38
2023-05-06T11:52:33.384Z,101788.50
2023-05-06T11:54:42.889Z,101781.84
2023-05-06T11:56:53.288Z,101776.75
2023-05-06T11:58:59.499Z,101789.63
2023-05-06T12:01:06.306Z,101780.50
2023-05-06T12:03:17.604Z,101784.97
2023-05-06T12:05:26.189Z,101800.44
2023-05-06T12:07:31.294Z,101795.56
2023-05-06T12:09:37.365Z,101799.03
2023-05-06T12:11:47.005Z,101789.00
2023-05-06T12:13:52.158Z,101790.00
2023-05-06T12:15:57.831Z,101793.59
2023-05-06T12:18:03.567Z,101791.72
2023-05-06T12:20:10.499Z,101797.66
2023-05-06T12:22:19.624Z,101793.59
2023-05-06T12:24:31.819Z,101792.44
2023-05-06T12:26:52.256Z,101798.09
2023-05-06T12:29:11.196Z,101790.91
2023-05-06T12:31:26.095Z,101786.28
2023-05-06T12:33:46.716Z,101791.47
2023-05-06T12:35:53.058Z,101789.84
2023-05-06T12:37:58.217Z,101793.50
2023-05-06T12:40:04.035Z,101789.31
2023-05-06T12:42:11.713Z,101789.38
2023-05-06T12:44:35.448Z,101794.91
2023-05-06T12:46:54.789Z,101796.50
2023-05-06T12:49:00.942Z,101799.22
2023-05-06T12:51:21.012Z,101796.19
2023-05-06T12:53:35.124Z,101794.88
2023-05-06T12:55:41.975Z,101801.44
2023-05-06T12:57:50.352Z,101786.31
2023-05-06T12:59:59.022Z,101796.94
2023-05-06T13:02:03.977Z,101797.78
2023-05-06T13:04:08.743Z,101791.19
2023-05-06T13:06:15.116Z,101793.16
2023-05-06T13:08:20.537Z,101791.34
2023-05-06T13:10:26.241Z,101793.03
2023-05-06T13:12:31.014Z,101796.38
2023-05-06T13:14:40.365Z,101793.41
2023-05-06T13:16:46.574Z,101792.00
2023-05-06T13:18:52.351Z,101795.84
2023-05-06T13:20:57.456Z,101792.41
2023-05-06T13:23:02.368Z,101797.31
2023-05-06T13:25:08.128Z,101797.22
2023-05-06T13:27:13.301Z,101796.03
2023-05-06T13:29:19.365Z,101790.09
2023-05-06T13:31:28.658Z,101789.00
2023-05-06T13:33:34.478Z,101789.38
2023-05-06T13:35:39.421Z,101789.78
2023-05-06T13:37:44.295Z,101784.28
2023-05-06T13:39:49.224Z,101784.69
2023-05-06T13:41:55.413Z,101790.78
2023-05-06T13:44:00.534Z,101783.19
2023-05-06T13:46:05.748Z,101776.91
2023-05-06T13:48:13.279Z,101784.94
2023-05-06T13:50:18.458Z,101776.44
2023-05-06T13:52:23.699Z,101781.72
2023-05-06T13:54:28.812Z,101783.19
2023-05-06T13:56:33.806Z,101780.69
2023-05-06T13:58:38.735Z,101776.81
2023-05-06T14:00:43.916Z,101763.59
2023-05-06T14:02:48.913Z,101764.63
2023-05-06T14:04:56.738Z,101772.97
2023-05-06T14:07:01.911Z,101772.09
2023-05-06T14:09:06.972Z,101765.66
2023-05-06T14:11:13.086Z,101766.94
2023-05-06T14:13:17.989Z,101765.06
2023-05-06T14:15:24.636Z,101771.09
2023-05-06T14:17:29.668Z,101763.00
2023-05-06T14:19:34.473Z,101765.72
2023-05-06T14:21:42.018Z,101761.41
2023-05-06T14:23:46.997Z,101762.84
2023-05-06T14:25:52.121Z,101757.66
2023-05-06T14:27:57.542Z,101760.34
2023-05-06T14:30:08.557Z,101754.16
2023-05-06T14:32:14.483Z,101757.56
2023-05-06T14:34:19.685Z,101755.13
2023-05-06T14:36:26.378Z,101757.69
2023-05-06T14:38:34.067Z,101751.50
2023-05-06T14:40:39.301Z,101754.88
2023-05-06T14:42:44.524Z,101754.00
2023-05-06T14:44:51.153Z,101748.94
2023-05-06T14:46:59.231Z,101753.38
2023-05-06T14:49:04.159Z,101756.06
2023-05-06T14:51:09.398Z,101753.31
2023-05-06T14:53:14.543Z,101755.94
2023-05-06T14:55:22.337Z,101757.38
2023-05-06T14:57:27.700Z,101751.09
2023-05-06T14:59:33.930Z,101753.50
2023-05-06T15:01:38.818Z,101754.88
2023-05-06T15:03:45.444Z,101751.00
2023-05-06T15:05:54.280Z,101750.84
2023-05-06T15:07:59.263Z,101744.19
2023-05-06T15:10:04.451Z,101748.59
2023-05-06T15:12:12.179Z,101742.63
2023-05-06T15:14:18.214Z,101750.25
2023-05-06T15:16:28.348Z,101753.63
2023-05-06T15:18:33.411Z,101746.19
2023-05-06T15:20:39.488Z,101747.75
2023-05-06T15:22:44.304Z,101745.00
2023-05-06T15:24:49.147Z,101753.16
2023-05-06T15:26:55.217Z,101745.94
2023-05-06T15:29:05.599Z,101744.09
2023-05-06T15:31:10.516Z,101745.69
2023-05-06T15:33:15.502Z,101745.81
2023-05-06T15:35:20.905Z,101747.06
2023-05-06T15:37:27.133Z,101741.41
2023-05-06T15:39:32.160Z,101745.09
2023-05-06T15:41:39.420Z,101750.97
2023-05-06T15:43:44.468Z,101747.25
2023-05-06T15:45:52.303Z,101746.50
2023-05-06T15:47:57.247Z,101747.72
2023-05-06T15:50:06.818Z,101751.16
2023-05-06T15:52:16.262Z,101748.50
2023-05-06T15:54:22.565Z,101753.06
2023-05-06T15:56:27.966Z,101747.78
2023-05-06T15:58:33.419Z,101756.72
2023-05-06T16:00:38.566Z,101752.22
2023-05-06T16:02:46.764Z,101755.63
2023-05-06T16:04:52.545Z,101749.72
2023-05-06T16:06:57.848Z,101761.44
2023-05-06T16:09:02.805Z,101764.47
2023-05-06T16:11:07.924Z,101772.00
2023-05-06T16:13:13.005Z,101771.38
2023-05-06T16:15:18.205Z,101770.75
2023-05-06T16:17:23.326Z,101775.28
2023-05-06T16:19:32.357Z,101766.72
2023-05-06T16:21:37.778Z,101775.88
2023-05-06T16:23:42.809Z,101781.56
2023-05-06T16:25:47.793Z,101777.63
2023-05-06T16:27:52.876Z,101791.28
2023-05-06T16:29:58.181Z,101796.63
2023-05-06T16:32:04.567Z,101799.91
2023-05-06T16:34:09.626Z,101804.81
2023-05-06T16:36:17.655Z,101809.63
2023-05-06T16:38:22.688Z,101811.13
2023-05-06T16:40:28.037Z,101810.28
2023-05-06T16:42:35.410Z,101808.28
2023-05-06T16:44:40.722Z,101809.03
2023-05-06T16:46:45.621Z,101809.59
2023-05-06T16:48:50.710Z,101802.56
2023-05-06T16:50:55.638Z,101802.22
2023-05-06T16:53:04.055Z,101801.09
2023-05-06T16:55:09.573Z,101803.03
2023-05-06T16:57:14.906Z,101801.63
2023-05-06T16:59:22.185Z,101795.34
2023-05-06T17:01:27.686Z,101800.44
2023-05-06T17:03:32.843Z,101796.50
2023-05-06T17:05:37.911Z,101802.81
2023-05-06T17:07:42.783Z,101802.41
2023-05-06T17:09:50.697Z,101809.16
2023-05-06T17:11:55.569Z,101802.41
2023-05-06T17:14:00.746Z,101814.81
2023-05-06T17:16:05.650Z,101804.25
2023-05-06T17:18:10.879Z,101797.81
2023-05-06T17:20:16.424Z,101803.31
2023-05-06T17:22:22.646Z,101805.38
2023-05-06T17:24:29.141Z,101807.94
2023-05-06T17:26:38.994Z,101803.38
2023-05-06T17:28:44.066Z,101804.53
2023-05-06T17:30:49.054Z,101801.88
2023-05-06T17:32:55.316Z,101810.56
2023-05-06T17:35:00.663Z,101809.97
2023-05-06T17:37:05.791Z,101804.72
2023-05-06T17:39:10.811Z,101800.53
2023-05-06T17:41:15.912Z,101807.41
2023-05-06T17:43:24.103Z,101816.88
2023-05-06T17:45:31.742Z,101822.72
2023-05-06T17:47:39.476Z,101816.41
2023-05-06T17:49:44.529Z,101817.66
2023-05-06T17:51:51.664Z,101820.06
2023-05-06T17:53:57.236Z,101817.94
2023-05-06T17:56:02.242Z,101813.94
2023-05-06T17:58:07.297Z,101814.94
2023-05-06T18:00:16.665Z,101819.00
2023-05-06T18:02:27.130Z,101814.72
2023-05-06T18:04:32.287Z,101822.81
2023-05-06T18:06:37.348Z,101814.53
2023-05-06T18:08:42.275Z,101819.34
2023-05-06T18:10:48.615Z,101814.63
2023-05-06T18:12:55.036Z,101815.94
2023-05-06T18:15:00.927Z,101819.44
2023-05-06T18:17:08.632Z,101824.97
2023-05-06T18:19:13.765Z,101817.81
2023-05-06T18:21:19.010Z,101819.44
2023-05-06T18:23:24.646Z,101809.75
2023-05-06T18:25:29.573Z,101810.50
2023-05-06T18:27:35.497Z,101812.28
2023-05-06T18:29:41.578Z,101812.53
2023-05-06T18:31:49.764Z,101816.06
2023-05-06T18:34:06.677Z,101812.69
2023-05-06T18:36:14.773Z,101812.91
2023-05-06T18:38:20.574Z,101814.78
2023-05-06T18:40:25.897Z,101822.81
2023-05-06T18:42:30.936Z,101817.41
2023-05-06T18:44:36.436Z,101813.81
2023-05-06T18:46:41.359Z,101823.09
2023-05-06T18:48:46.279Z,101816.22
2023-05-06T18:50:57.093Z,101814.69
2023-05-06T18:53:01.936Z,101818.09
2023-05-06T18:55:07.700Z,101815.63
2023-05-06T18:57:12.670Z,101814.16
2023-05-06T18:59:18.825Z,101810.97
2023-05-06T19:01:25.272Z,101813.78
2023-05-06T19:03:30.904Z,101822.72
2023-05-06T19:05:38.166Z,101822.81
2023-05-06T19:07:45.752Z,101818.75
2023-05-06T19:09:50.790Z,101825.56
2023-05-06T19:11:56.620Z,101824.19
2023-05-06T19:14:01.687Z,101826.34
2023-05-06T19:16:06.905Z,101820.97
2023-05-06T19:18:12.051Z,101820.84
2023-05-06T19:20:17.531Z,101813.41
2023-05-06T19:22:22.365Z,101813.34
2023-05-06T19:24:31.285Z,101817.53
2023-05-06T19:26:36.591Z,101811.25
2023-05-06T19:28:43.251Z,101803.00
2023-05-06T19:30:48.489Z,101803.47
2023-05-06T19:32:55.403Z,101808.53
2023-05-06T19:35:02.583Z,101806.66
2023-05-06T19:37:07.802Z,101804.66
2023-05-06T19:39:12.752Z,101808.16
2023-05-06T19:41:22.880Z,101809.59
2023-05-06T19:43:29.374Z,101814.41
2023-05-06T19:45:34.679Z,101808.16
2023-05-06T19:47:39.695Z,101805.53
2023-05-06T19:49:44.636Z,101805.53
2023-05-06T19:51:49.581Z,101801.00
2023-05-06T19:53:54.404Z,101797.56
2023-05-06T19:55:59.624Z,101801.47
2023-05-06T19:58:07.368Z,101798.25
2023-05-06T20:00:21.895Z,101799.34
2023-05-06T20:02:27.097Z,101801.75
2023-05-06T20:04:31.956Z,101800.25
2023-05-06T20:06:36.939Z,101799.41
2023-05-06T20:08:41.900Z,101793.94
2023-05-06T20:10:51.945Z,101789.97
2023-05-06T20:12:58.018Z,101797.31
2023-05-06T20:15:07.274Z,101791.69
2023-05-06T20:17:12.293Z,101798.13
2023-05-06T20:19:17.774Z,101799.72
2023-05-06T20:21:24.664Z,101804.16
2023-05-06T20:23:31.098Z,101800.00
2023-05-06T20:25:37.756Z,101801.66
2023-05-06T20:27:42.936Z,101801.72
2023-05-06T20:29:48.160Z,101805.16
2023-05-06T20:31:56.906Z,101801.84
2023-05-06T20:34:01.814Z,101801.56
2023-05-06T20:36:07.668Z,101796.16
2023-05-06T20:38:15.830Z,101800.25
2023-05-06T20:40:20.805Z,101805.56
2023-05-06T20:42:30.611Z,101816.16
2023-05-06T20:44:35.622Z,101811.53
2023-05-06T20:46:40.681Z,101803.81
2023-05-06T20:48:48.350Z,101805.31
2023-05-06T20:50:57.161Z,101804.31
2023-05-06T20:53:03.602Z,101804.41
2023-05-06T20:55:09.921Z,101802.09
2023-05-06T20:57:18.365Z,101807.03
2023-05-06T20:59:24.579Z,101802.94
2023-05-06T21:01:32.624Z,101804.13
2023-05-06T21:03:40.180Z,101798.00
2023-05-06T21:05:47.841Z,101801.25
2023-05-06T21:07:54.116Z,101812.59
2023-05-06T21:09:59.335Z,101815.59
2023-05-06T21:12:04.318Z,101813.03
2023-05-06T21:14:09.262Z,101819.97
2023-05-06T21:16:14.505Z,101816.47
2023-05-06T21:18:19.828Z,101810.28
2023-05-06T21:20:25.852Z,101818.22
2023-05-06T21:22:33.774Z,101811.38
2023-05-06T21:24:38.864Z,101817.72
2023-05-06T21:26:43.742Z,101813.03
2023-05-06T21:28:52.241Z,101812.09
2023-05-06T21:30:58.015Z,101811.75
2023-05-06T21:33:03.302Z,101809.78
2023-05-06T21:35:09.473Z,101812.22
2023-05-06T21:37:14.265Z,101810.72
2023-05-06T21:39:22.290Z,101811.75
2023-05-06T21:41:27.399Z,101814.81
2023-05-06T21:43:33.374Z,101811.66
2023-05-06T21:45:38.932Z,101819.59
2023-05-06T21:47:43.767Z,101813.34
2023-05-06T21:49:48.734Z,101815.06
2023-05-06T21:51:54.201Z,101814.75
2023-05-06T21:53:59.622Z,101816.41
2023-05-06T21:56:07.328Z,101819.19
2023-05-06T21:58:12.243Z,101808.44
2023-05-06T22:00:18.215Z,101805.88
2023-05-06T22:02:23.479Z,101812.03
2023-05-06T22:04:29.561Z,101811.19
2023-05-06T22:06:34.589Z,101808.72
2023-05-06T22:08:39.833Z,101805.16
2023-05-06T22:10:44.858Z,101803.72
2023-05-06T22:12:54.581Z,101789.91
2023-05-06T22:14:59.485Z,101789.16
2023-05-06T22:17:05.086Z,101793.03
2023-05-06T22:19:10.712Z,101798.41
2023-05-06T22:21:15.542Z,101803.06
2023-05-06T22:23:23.277Z,101802.84
2023-05-06T22:25:29.405Z,101806.50
2023-05-06T22:27:34.486Z,101798.66
2023-05-06T22:29:42.327Z,101801.00
2023-05-06T22:31:47.141Z,101801.09
2023-05-06T22:33:54.834Z,101813.47
2023-05-06T22:36:00.436Z,101812.69
2023-05-06T22:38:05.481Z,101807.59
2023-05-06T22:40:11.614Z,101814.88
2023-05-06T22:42:16.614Z,101805.16
2023-05-06T22:44:24.774Z,101807.00
2023-05-06T22:46:32.508Z,101808.84
2023-05-06T22:48:40.848Z,101804.63
2023-05-06T22:50:46.924Z,101809.06
2023-05-06T22:52:52.008Z,101805.47
2023-05-06T22:54:57.341Z,101802.25
2023-05-06T22:57:02.313Z,101811.03
2023-05-06T22:59:08.465Z,101804.91
2023-05-06T23:01:13.418Z,101804.81
2023-05-06T23:03:24.003Z,101805.75
2023-05-06T23:05:33.958Z,101806.59
2023-05-06T23:07:39.493Z,101808.34
2023-05-06T23:09:44.408Z,101808.25
2023-05-06T23:11:49.661Z,101811.03
2023-05-06T23:13:54.537Z,101811.84
2023-05-06T23:16:00.427Z,101812.75
2023-05-06T23:18:05.464Z,101809.19
2023-05-06T23:20:14.010Z,101803.19
2023-05-06T23:22:19.005Z,101803.06
2023-05-06T23:24:23.823Z,101799.59
2023-05-06T23:26:31.040Z,101802.28
2023-05-06T23:28:35.945Z,101807.91
2023-05-06T23:30:45.522Z,101808.84
2023-05-06T23:32:50.458Z,101802.56
2023-05-06T23:34:55.446Z,101803.50
2023-05-06T23:37:04.422Z,101802.81
2023-05-06T23:39:11.864Z,101801.03
2023-05-06T23:41:16.708Z,101802.75
2023-05-06T23:43:24.607Z,101801.06
2023-05-06T23:45:30.841Z,101806.44
2023-05-06T23:47:35.889Z,101801.22
2023-05-06T23:49:42.297Z,101800.41
2023-05-06T23:51:47.326Z,101800.63
2023-05-06T23:53:54.866Z,101795.31
2023-05-06T23:56:02.839Z,101808.75
2023-05-06T23:58:07.867Z,101798.16
